createdAt,value
2018-09-27T00:00:03.347Z,11.78
2018-09-27T00:02:31.929Z,11.78
2018-09-27T00:05:00.669Z,11.80
2018-09-27T00:07:30.394Z,11.80
2018-09-27T00:09:59.982Z,11.84
2018-09-27T00:12:28.547Z,11.87
2018-09-27T00:14:57.392Z,11.91
2018-09-27T00:17:26.124Z,11.93
2018-09-27T00:19:54.898Z,11.95
2018-09-27T00:22:23.475Z,11.99
2018-09-27T00:24:52.109Z,12.02
2018-09-27T00:27:21.029Z,12.07
2018-09-27T00:29:50.565Z,12.08
2018-09-27T00:32:19.145Z,12.11
2018-09-27T00:34:48.784Z,12.17
2018-09-27T00:37:17.538Z,12.21
2018-09-27T00:39:46.046Z,12.27
2018-09-27T00:42:15.128Z,12.33
2018-09-27T00:44:43.934Z,12.38
2018-09-27T00:47:12.542Z,12.41
2018-09-27T00:49:42.744Z,12.46
2018-09-27T00:52:11.307Z,12.50
2018-09-27T00:54:39.947Z,12.55
2018-09-27T00:57:08.532Z,12.56
2018-09-27T00:59:37.278Z,12.56
2018-09-27T01:02:07.237Z,12.57
2018-09-27T01:04:35.922Z,12.57
2018-09-27T01:07:06.194Z,12.57
2018-09-27T01:09:34.916Z,12.58
2018-09-27T01:12:03.618Z,12.59
2018-09-27T01:14:32.406Z,12.59
2018-09-27T01:17:01.107Z,12.58
2018-09-27T01:19:31.402Z,12.59
2018-09-27T01:22:00.718Z,12.60
2018-09-27T01:24:30.387Z,12.63
2018-09-27T01:26:59.058Z,12.64
2018-09-27T01:29:27.702Z,12.67
2018-09-27T01:31:56.205Z,12.68
2018-09-27T01:34:24.988Z,12.71
2018-09-27T01:36:53.536Z,12.74
2018-09-27T01:39:22.137Z,12.85
2018-09-27T01:41:51.120Z,12.91
2018-09-27T01:44:20.357Z,12.96
2018-09-27T01:46:48.903Z,13.01
2018-09-27T01:49:17.524Z,13.04
2018-09-27T01:51:46.656Z,13.07
2018-09-27T01:54:15.128Z,13.10
2018-09-27T01:56:43.663Z,13.13
2018-09-27T01:59:12.702Z,13.16
2018-09-27T02:01:41.220Z,13.19
2018-09-27T02:04:09.720Z,13.21
2018-09-27T02:06:38.364Z,13.22
2018-09-27T02:09:09.121Z,13.23
2018-09-27T02:11:37.973Z,13.25
2018-09-27T02:14:06.720Z,13.26
2018-09-27T02:16:35.450Z,13.27
2018-09-27T02:19:04.074Z,13.28
2018-09-27T02:21:32.636Z,13.28
2018-09-27T02:24:01.214Z,13.27
2018-09-27T02:26:29.733Z,13.28
2018-09-27T02:28:58.252Z,13.27
2018-09-27T02:31:26.812Z,13.27
2018-09-27T02:33:55.315Z,13.26
2018-09-27T02:36:24.036Z,13.25
2018-09-27T02:38:53.637Z,13.24
2018-09-27T02:41:22.528Z,13.25
2018-09-27T02:43:51.045Z,13.25
2018-09-27T02:46:19.581Z,13.27
2018-09-27T02:48:48.257Z,13.27
2018-09-27T02:51:16.818Z,13.28
2018-09-27T02:53:45.391Z,13.29
2018-09-27T02:56:14.314Z,13.29
2018-09-27T02:58:43.365Z,13.30
2018-09-27T03:01:12.000Z,13.30
2018-09-27T03:03:40.642Z,13.31
2018-09-27T03:06:09.296Z,13.31
2018-09-27T03:08:37.892Z,13.30
2018-09-27T03:11:06.728Z,13.32
2018-09-27T03:13:35.602Z,13.32
2018-09-27T03:16:04.296Z,13.32
2018-09-27T03:18:33.073Z,13.31
2018-09-27T03:21:01.711Z,13.32
2018-09-27T03:23:30.369Z,13.30
2018-09-27T03:25:58.976Z,13.31
2018-09-27T03:28:27.616Z,13.31
2018-09-27T03:30:56.226Z,13.30
2018-09-27T03:33:24.815Z,13.31
2018-09-27T03:35:53.637Z,13.31
2018-09-27T03:38:22.320Z,13.34
2018-09-27T03:40:54.440Z,13.33
2018-09-27T03:43:22.970Z,13.34
2018-09-27T03:45:51.622Z,13.36
2018-09-27T03:48:21.158Z,13.37
2018-09-27T03:50:49.746Z,13.39
2018-09-27T03:53:18.308Z,13.39
2018-09-27T03:55:46.902Z,13.40
2018-09-27T03:58:16.665Z,13.39
2018-09-27T04:00:45.200Z,13.37
2018-09-27T04:03:13.771Z,13.36
2018-09-27T04:05:42.469Z,13.36
2018-09-27T04:08:11.034Z,13.36
2018-09-27T04:10:40.388Z,13.36
2018-09-27T04:13:08.853Z,13.37
2018-09-27T04:15:37.504Z,13.39
2018-09-27T04:18:06.243Z,13.40
2018-09-27T04:20:41.804Z,13.39
2018-09-27T04:23:10.298Z,13.41
2018-09-27T04:25:40.013Z,13.41
2018-09-27T04:28:08.707Z,13.41
2018-09-27T04:30:37.373Z,13.42
2018-09-27T04:33:06.133Z,13.41
2018-09-27T04:35:34.723Z,13.41
2018-09-27T04:38:03.569Z,13.42
2018-09-27T04:40:32.259Z,13.43
2018-09-27T04:43:00.862Z,13.45
2018-09-27T04:45:29.716Z,13.44
2018-09-27T04:47:58.356Z,13.44
2018-09-27T04:50:27.052Z,13.46
2018-09-27T04:52:55.782Z,13.48
2018-09-27T04:55:28.309Z,13.46
2018-09-27T04:57:56.978Z,13.48
2018-09-27T05:00:25.851Z,13.48
2018-09-27T05:02:55.789Z,13.49
2018-09-27T05:05:29.139Z,13.49
2018-09-27T05:07:58.720Z,13.51
2018-09-27T05:10:27.420Z,13.51
2018-09-27T05:12:56.190Z,13.53
2018-09-27T05:15:24.892Z,13.53
2018-09-27T05:17:53.386Z,13.53
2018-09-27T05:20:22.231Z,13.52
2018-09-27T05:22:50.816Z,13.51
2018-09-27T05:25:19.454Z,13.51
2018-09-27T05:27:48.796Z,13.53
2018-09-27T05:30:17.321Z,13.56
2018-09-27T05:32:45.980Z,13.61
2018-09-27T05:35:14.594Z,13.61
2018-09-27T05:37:43.272Z,13.66
2018-09-27T05:40:12.582Z,13.68
2018-09-27T05:42:41.072Z,13.69
2018-09-27T05:45:09.588Z,13.71
2018-09-27T05:47:38.356Z,13.73
2018-09-27T05:50:07.701Z,13.77
2018-09-27T05:52:37.638Z,13.82
2018-09-27T05:55:06.695Z,13.86
2018-09-27T05:57:35.455Z,13.92
2018-09-27T06:00:04.247Z,13.97
2018-09-27T06:02:33.240Z,14.04
2018-09-27T06:05:01.954Z,14.08
2018-09-27T06:07:32.163Z,14.14
2018-09-27T06:10:01.524Z,14.21
2018-09-27T06:12:30.337Z,14.27
2018-09-27T06:14:58.887Z,14.31
2018-09-27T06:17:27.456Z,14.35
2018-09-27T06:19:56.194Z,14.38
2018-09-27T06:22:24.625Z,14.43
2018-09-27T06:24:53.308Z,14.47
2018-09-27T06:27:22.014Z,14.50
2018-09-27T06:29:50.612Z,14.52
2018-09-27T06:32:19.193Z,14.56
2018-09-27T06:34:48.555Z,14.60
2018-09-27T06:37:17.132Z,14.63
2018-09-27T06:39:45.717Z,14.68
2018-09-27T06:42:14.383Z,14.69
2018-09-27T06:44:43.057Z,14.69
2018-09-27T06:47:11.792Z,14.70
2018-09-27T06:49:41.150Z,14.71
2018-09-27T06:52:09.731Z,14.74
2018-09-27T06:54:38.247Z,14.77
2018-09-27T06:57:07.065Z,14.81
2018-09-27T06:59:35.724Z,14.86
2018-09-27T07:02:04.483Z,14.91
2018-09-27T07:04:33.331Z,14.96
2018-09-27T07:07:01.890Z,15.01
2018-09-27T07:09:30.484Z,15.06
2018-09-27T07:11:59.037Z,15.08
2018-09-27T07:14:27.716Z,15.07
2018-09-27T07:16:56.233Z,15.08
2018-09-27T07:19:25.209Z,15.09
2018-09-27T07:21:53.677Z,15.09
2018-09-27T07:24:22.296Z,15.09
2018-09-27T07:26:51.232Z,15.10
2018-09-27T07:29:19.848Z,15.09
2018-09-27T07:31:50.279Z,15.08
2018-09-27T07:34:18.904Z,15.08
2018-09-27T07:36:47.628Z,15.07
2018-09-27T07:39:16.460Z,15.08
2018-09-27T07:41:44.997Z,15.11
2018-09-27T07:44:13.691Z,15.13
2018-09-27T07:46:42.299Z,15.17
2018-09-27T07:49:12.447Z,15.24
2018-09-27T07:51:41.187Z,15.30
2018-09-27T07:54:09.880Z,15.35
2018-09-27T07:56:38.485Z,15.40
2018-09-27T07:59:06.954Z,15.46
2018-09-27T08:01:35.675Z,15.50
2018-09-27T08:04:04.312Z,15.55
2018-09-27T08:06:33.008Z,15.60
2018-09-27T08:09:01.640Z,15.64
2018-09-27T08:11:30.202Z,15.67
2018-09-27T08:13:58.612Z,15.74
2018-09-27T08:16:27.207Z,15.74
2018-09-27T08:18:55.755Z,15.75
2018-09-27T08:21:24.428Z,15.76
2018-09-27T08:23:52.987Z,15.81
2018-09-27T08:26:21.501Z,15.85
2018-09-27T08:28:49.993Z,15.85
2018-09-27T08:31:18.615Z,15.83
2018-09-27T08:33:47.157Z,15.80
2018-09-27T08:36:15.658Z,15.87
2018-09-27T08:38:44.474Z,15.94
2018-09-27T08:41:13.147Z,16.00
2018-09-27T08:43:42.787Z,16.05
2018-09-27T08:46:11.570Z,16.13
2018-09-27T08:48:40.143Z,16.15
2018-09-27T08:51:08.847Z,16.16
2018-09-27T08:53:37.469Z,16.15
2018-09-27T08:56:07.204Z,16.23
2018-09-27T08:58:35.832Z,16.32
2018-09-27T09:01:04.537Z,16.37
2018-09-27T09:03:33.606Z,16.36
2018-09-27T09:06:02.205Z,16.47
2018-09-27T09:08:30.819Z,16.51
2018-09-27T09:10:59.459Z,16.49
2018-09-27T09:13:27.980Z,16.46
2018-09-27T09:15:56.696Z,16.40
2018-09-27T09:18:25.273Z,16.40
2018-09-27T09:20:53.850Z,16.39
2018-09-27T09:23:22.580Z,16.38
2018-09-27T09:25:52.272Z,16.44
2018-09-27T09:28:20.876Z,16.47
2018-09-27T09:30:49.657Z,16.55
2018-09-27T09:33:24.881Z,16.56
2018-09-27T09:35:53.494Z,16.57
2018-09-27T09:38:21.988Z,16.65
2018-09-27T09:40:50.764Z,16.70
2018-09-27T09:43:19.347Z,16.78
2018-09-27T09:45:47.901Z,16.80
2018-09-27T09:48:17.634Z,16.89
2018-09-27T09:50:46.234Z,16.90
2018-09-27T09:53:15.984Z,16.87
2018-09-27T09:55:44.555Z,16.85
2018-09-27T09:58:13.278Z,16.80
2018-09-27T10:00:41.884Z,16.77
2018-09-27T10:03:10.453Z,16.78
2018-09-27T10:05:39.211Z,16.83
2018-09-27T10:08:07.927Z,16.91
2018-09-27T10:10:36.565Z,17.02
2018-09-27T10:13:05.835Z,16.96
2018-09-27T10:15:34.484Z,16.95
2018-09-27T10:18:03.263Z,16.93
2018-09-27T10:20:31.836Z,17.00
2018-09-27T10:23:01.376Z,17.01
2018-09-27T10:25:30.016Z,17.13
2018-09-27T10:27:58.740Z,17.20
2018-09-27T10:30:28.415Z,17.31
2018-09-27T10:32:57.218Z,17.31
2018-09-27T10:35:25.962Z,17.38
2018-09-27T10:37:54.515Z,17.50
2018-09-27T10:40:24.119Z,17.69
2018-09-27T10:42:52.865Z,17.93
2018-09-27T10:45:21.747Z,18.00
2018-09-27T10:47:51.384Z,18.07
2018-09-27T10:50:20.306Z,18.14
2018-09-27T10:52:48.888Z,18.09
2018-09-27T10:55:17.544Z,18.13
2018-09-27T10:57:46.181Z,18.19
2018-09-27T11:00:21.864Z,18.20
2018-09-27T11:02:50.960Z,18.41
2018-09-27T11:09:32.628Z,18.67
2018-09-27T11:12:01.309Z,18.75
2018-09-27T11:14:30.208Z,18.72
2018-09-27T11:16:59.544Z,18.67
2018-09-27T11:19:28.058Z,18.81
2018-09-27T11:21:56.745Z,18.87
2018-09-27T11:24:25.303Z,18.94
2018-09-27T11:26:54.024Z,18.88
2018-09-27T11:29:28.068Z,18.81
2018-09-27T11:32:02.043Z,18.81
2018-09-27T11:34:30.651Z,18.80
2018-09-27T11:36:59.201Z,18.68
2018-09-27T11:39:27.807Z,18.74
2018-09-27T11:41:56.584Z,18.79
2018-09-27T11:44:25.432Z,18.82
2018-09-27T11:46:54.017Z,18.74
2018-09-27T11:49:24.213Z,18.76
2018-09-27T11:51:52.801Z,18.90
2018-09-27T11:54:21.456Z,18.79
2018-09-27T11:56:50.210Z,18.78
2018-09-27T11:59:18.801Z,18.83
2018-09-27T12:01:47.444Z,18.99
2018-09-27T12:04:16.187Z,18.95
2018-09-27T12:06:44.901Z,18.95
2018-09-27T12:09:13.914Z,18.96
2018-09-27T12:11:42.620Z,18.92
2018-09-27T12:14:11.721Z,18.93
2018-09-27T12:16:40.324Z,18.95
2018-09-27T12:19:09.064Z,18.97
2018-09-27T12:21:37.648Z,19.03
2018-09-27T12:24:06.195Z,19.00
2018-09-27T12:26:35.339Z,18.98
2018-09-27T12:29:03.876Z,19.03
2018-09-27T12:31:32.812Z,19.05
2018-09-27T12:34:01.657Z,19.03
2018-09-27T12:36:30.248Z,18.95
2018-09-27T12:38:58.801Z,19.05
2018-09-27T12:41:27.455Z,19.13
2018-09-27T12:43:56.240Z,19.26
2018-09-27T12:46:25.364Z,19.29
2018-09-27T12:48:54.159Z,19.32
2018-09-27T12:51:22.817Z,19.29
2018-09-27T12:53:51.641Z,19.42
2018-09-27T12:56:20.438Z,19.43
2018-09-27T12:58:49.017Z,19.45
2018-09-27T13:01:17.497Z,19.37
2018-09-27T13:03:46.178Z,19.45
2018-09-27T13:06:14.747Z,19.55
2018-09-27T13:08:43.337Z,19.74
2018-09-27T13:11:12.168Z,19.93
2018-09-27T13:13:40.698Z,20.20
2018-09-27T13:16:09.524Z,20.26
2018-09-27T13:18:38.240Z,20.26
2018-09-27T13:21:06.793Z,20.27
2018-09-27T13:23:35.346Z,20.53
2018-09-27T13:26:04.212Z,20.78
2018-09-27T13:28:32.717Z,20.80
2018-09-27T13:31:01.430Z,20.94
2018-09-27T13:33:30.703Z,21.26
2018-09-27T13:35:59.223Z,21.14
2018-09-27T13:38:28.970Z,21.13
2018-09-27T13:40:58.280Z,21.02
2018-09-27T13:43:27.648Z,20.86
2018-09-27T13:45:58.327Z,20.88
2018-09-27T13:48:28.074Z,20.87
2018-09-27T13:50:57.752Z,20.81
2018-09-27T13:53:27.234Z,20.75
2018-09-27T13:55:56.929Z,20.68
2018-09-27T13:58:26.277Z,20.73
2018-09-27T14:00:55.668Z,20.86
2018-09-27T14:03:24.614Z,21.13
2018-09-27T14:05:53.464Z,21.56
2018-09-27T14:08:22.139Z,21.47
2018-09-27T14:10:51.095Z,21.20
2018-09-27T14:13:19.778Z,21.04
2018-09-27T14:15:49.159Z,20.76
2018-09-27T14:18:17.793Z,20.64
2018-09-27T14:20:46.594Z,20.52
2018-09-27T14:23:16.031Z,20.50
2018-09-27T14:25:45.023Z,20.48
2018-09-27T14:28:14.389Z,20.39
2018-09-27T14:30:43.009Z,20.31
2018-09-27T14:33:11.644Z,20.23
2018-09-27T14:35:40.225Z,20.18
2018-09-27T14:38:08.685Z,20.13
2018-09-27T14:40:37.482Z,20.10
2018-09-27T14:43:06.429Z,20.02
2018-09-27T14:45:35.025Z,19.97
2018-09-27T14:48:03.878Z,19.96
2018-09-27T14:50:32.414Z,19.99
2018-09-27T14:53:01.096Z,19.97
2018-09-27T14:55:29.861Z,19.95
2018-09-27T14:57:58.628Z,19.93
2018-09-27T15:00:27.101Z,19.93
2018-09-27T15:02:55.711Z,19.91
2018-09-27T15:05:24.976Z,19.90
2018-09-27T15:07:53.579Z,19.89
2018-09-27T15:10:22.333Z,20.25
2018-09-27T15:12:50.977Z,20.28
2018-09-27T15:15:20.092Z,20.27
2018-09-27T15:17:48.924Z,20.16
2018-09-27T15:20:17.500Z,20.10
2018-09-27T15:22:46.188Z,20.05
2018-09-27T15:25:14.726Z,20.12
2018-09-27T15:27:43.283Z,20.03
2018-09-27T15:30:11.958Z,19.91
2018-09-27T15:32:40.731Z,19.83
2018-09-27T15:35:09.284Z,19.76
2018-09-27T15:37:37.920Z,19.72
2018-09-27T15:40:06.626Z,19.76
2018-09-27T15:42:36.348Z,19.75
2018-09-27T15:45:05.983Z,19.85
2018-09-27T15:47:34.789Z,20.02
2018-09-27T15:50:03.478Z,19.93
2018-09-27T15:52:32.025Z,19.80
2018-09-27T15:55:01.758Z,19.68
2018-09-27T15:57:30.549Z,19.53
2018-09-27T15:59:59.377Z,19.39
2018-09-27T16:02:28.065Z,19.28
2018-09-27T16:04:56.704Z,19.17
2018-09-27T16:07:26.490Z,19.06
2018-09-27T16:09:55.268Z,18.94
2018-09-27T16:12:24.008Z,18.86
2018-09-27T16:14:52.801Z,18.79
2018-09-27T16:17:22.460Z,18.76
2018-09-27T16:19:51.200Z,18.68
2018-09-27T16:22:19.890Z,18.60
2018-09-27T16:24:48.853Z,18.53
2018-09-27T16:27:18.713Z,18.46
2018-09-27T16:29:47.397Z,18.39
2018-09-27T16:32:16.152Z,18.31
2018-09-27T16:34:44.656Z,18.22
2018-09-27T16:37:13.253Z,18.13
2018-09-27T16:39:42.136Z,18.04
2018-09-27T16:42:11.267Z,17.94
2018-09-27T16:44:40.042Z,17.84
2018-09-27T16:47:08.711Z,17.72
2018-09-27T16:49:37.258Z,17.62
2018-09-27T16:52:05.840Z,17.52
2018-09-27T16:54:34.669Z,17.42
2018-09-27T16:57:04.948Z,17.30
2018-09-27T16:59:33.601Z,17.22
2018-09-27T17:02:02.413Z,17.14
2018-09-27T17:04:30.996Z,17.07
2018-09-27T17:06:59.608Z,16.98
2018-09-27T17:09:28.486Z,16.88
2018-09-27T17:11:57.063Z,16.78
2018-09-27T17:14:26.685Z,16.69
2018-09-27T17:16:55.380Z,16.63
2018-09-27T17:19:23.949Z,16.55
2018-09-27T17:21:52.444Z,16.48
2018-09-27T17:24:21.208Z,16.42
2018-09-27T17:26:50.692Z,16.35
2018-09-27T17:29:19.340Z,16.29
2018-09-27T17:31:48.073Z,16.22
2018-09-27T17:34:16.607Z,16.16
2018-09-27T17:36:45.320Z,16.09
2018-09-27T17:39:14.179Z,16.02
2018-09-27T17:41:42.875Z,15.94
2018-09-27T17:44:11.853Z,15.89
2018-09-27T17:46:41.409Z,15.84
2018-09-27T17:49:11.014Z,15.79
2018-09-27T17:51:40.024Z,15.75
2018-09-27T17:54:08.864Z,15.73
2018-09-27T17:56:37.697Z,15.69
2018-09-27T17:59:07.074Z,15.64
2018-09-27T18:01:35.747Z,15.60
2018-09-27T18:04:04.364Z,15.56
2018-09-27T18:06:32.972Z,15.51
2018-09-27T18:09:01.726Z,15.47
2018-09-27T18:11:30.450Z,15.44
2018-09-27T18:13:58.962Z,15.39
2018-09-27T18:16:27.631Z,15.34
2018-09-27T18:18:56.488Z,15.31
2018-09-27T18:21:25.049Z,15.27
2018-09-27T18:23:54.807Z,15.25
2018-09-27T18:26:23.498Z,15.23
2018-09-27T18:28:51.963Z,15.21
2018-09-27T18:31:21.077Z,15.18
2018-09-27T18:33:49.617Z,15.12
2018-09-27T18:36:19.384Z,15.08
2018-09-27T18:38:48.168Z,15.03
2018-09-27T18:41:16.686Z,15.00
2018-09-27T18:43:45.285Z,14.96
2018-09-27T18:46:14.029Z,14.94
2018-09-27T18:48:42.531Z,14.91
2018-09-27T18:51:11.144Z,14.88
2018-09-27T18:53:39.792Z,14.85
2018-09-27T18:56:08.438Z,14.80
2018-09-27T18:58:38.071Z,14.76
2018-09-27T19:01:06.960Z,14.73
2018-09-27T19:03:35.576Z,14.70
2018-09-27T19:06:04.164Z,14.68
2018-09-27T19:08:32.801Z,14.65
2018-09-27T19:11:01.519Z,14.64
2018-09-27T19:13:30.940Z,14.61
2018-09-27T19:15:59.746Z,14.59
2018-09-27T19:18:28.352Z,14.55
2018-09-27T19:20:56.968Z,14.51
2018-09-27T19:23:25.921Z,14.45
2018-09-27T19:25:55.328Z,14.43
2018-09-27T19:28:23.909Z,14.40
2018-09-27T19:30:52.488Z,14.35
2018-09-27T19:33:21.291Z,14.31
2018-09-27T19:35:49.821Z,14.28
2018-09-27T19:38:18.599Z,14.23
2018-09-27T19:40:47.173Z,14.22
2018-09-27T19:43:15.686Z,14.19
2018-09-27T19:45:44.347Z,14.15
2018-09-27T19:48:13.868Z,14.10
2018-09-27T19:50:42.756Z,14.05
2018-09-27T19:53:11.432Z,14.04
2018-09-27T19:55:40.013Z,14.02
2018-09-27T19:58:08.812Z,13.97
2018-09-27T20:00:37.704Z,13.92
2018-09-27T20:03:07.141Z,13.88
2018-09-27T20:05:35.898Z,13.83
2018-09-27T20:08:04.697Z,13.78
2018-09-27T20:10:33.596Z,13.73
2018-09-27T20:13:02.440Z,13.67
2018-09-27T20:15:31.384Z,13.62
2018-09-27T20:18:00.050Z,13.61
2018-09-27T20:20:28.556Z,13.55
2018-09-27T20:22:57.188Z,13.52
2018-09-27T20:25:25.740Z,13.50
2018-09-27T20:27:54.390Z,13.48
2018-09-27T20:30:23.124Z,13.47
2018-09-27T20:32:51.745Z,13.45
2018-09-27T20:35:21.204Z,13.45
2018-09-27T20:37:49.911Z,13.44
2018-09-27T20:40:18.701Z,13.41
2018-09-27T20:42:47.480Z,13.39
2018-09-27T20:45:16.148Z,13.39
2018-09-27T20:47:44.765Z,13.39
2018-09-27T20:50:14.397Z,13.39
2018-09-27T20:52:43.076Z,13.36
2018-09-27T20:55:11.928Z,13.32
2018-09-27T20:57:40.501Z,13.27
2018-09-27T21:00:10.164Z,13.21
2018-09-27T21:02:38.642Z,13.14
2018-09-27T21:05:07.581Z,13.08
2018-09-27T21:07:36.378Z,13.05
2018-09-27T21:10:05.169Z,12.99
2018-09-27T21:12:33.940Z,12.94
2018-09-27T21:15:02.812Z,12.91
2018-09-27T21:17:34.748Z,12.83
2018-09-27T21:20:03.456Z,12.77
2018-09-27T21:22:32.118Z,12.74
2018-09-27T21:25:00.728Z,12.67
2018-09-27T21:27:29.550Z,12.63
2018-09-27T21:29:57.998Z,12.58
2018-09-27T21:32:26.495Z,12.51
2018-09-27T21:34:55.221Z,12.42
2018-09-27T21:37:23.667Z,12.37
2018-09-27T21:39:52.161Z,12.32
2018-09-27T21:42:20.764Z,12.31
2018-09-27T21:44:49.241Z,12.29
2018-09-27T21:47:17.772Z,12.27
2018-09-27T21:49:46.483Z,12.23
2018-09-27T21:52:15.096Z,12.22
2018-09-27T21:54:43.739Z,12.22
2018-09-27T21:57:12.635Z,12.21
2018-09-27T21:59:41.226Z,12.20
2018-09-27T22:02:09.743Z,12.14
2018-09-27T22:04:38.355Z,12.09
2018-09-27T22:07:07.048Z,12.09
2018-09-27T22:09:35.526Z,12.05
2018-09-27T22:12:04.229Z,11.99
2018-09-27T22:14:33.008Z,11.97
2018-09-27T22:17:01.550Z,11.94
2018-09-27T22:19:30.345Z,11.94
2018-09-27T22:21:58.873Z,11.92
2018-09-27T22:24:27.565Z,11.90
2018-09-27T22:26:56.295Z,11.92
2018-09-27T22:29:24.896Z,11.92
2018-09-27T22:31:53.425Z,11.96
2018-09-27T22:34:22.145Z,11.98
2018-09-27T22:36:50.756Z,12.01
2018-09-27T22:39:19.364Z,12.05
2018-09-27T22:41:48.029Z,12.07
2018-09-27T22:44:16.664Z,12.09
2018-09-27T22:46:45.216Z,12.10
2018-09-27T22:49:14.281Z,12.09
2018-09-27T22:51:42.787Z,12.12
2018-09-27T22:54:11.412Z,12.12
2018-09-27T22:56:40.029Z,12.10
2018-09-27T22:59:08.563Z,12.09
2018-09-27T23:01:37.168Z,12.11
2018-09-27T23:04:05.809Z,12.12
2018-09-27T23:06:34.327Z,12.15
2018-09-27T23:09:02.896Z,12.12
2018-09-27T23:11:32.706Z,12.08
2018-09-27T23:14:02.456Z,12.05
2018-09-27T23:16:31.308Z,12.01
2018-09-27T23:18:59.999Z,11.97
2018-09-27T23:21:28.863Z,11.95
2018-09-27T23:23:57.448Z,11.90
2018-09-27T23:26:26.472Z,11.89
2018-09-27T23:28:55.004Z,11.88
2018-09-27T23:31:23.595Z,11.84
2018-09-27T23:33:52.247Z,11.86
2018-09-27T23:36:21.236Z,11.83
2018-09-27T23:38:50.796Z,11.79
2018-09-27T23:41:19.571Z,11.79
2018-09-27T23:43:48.188Z,11.77
2018-09-27T23:46:16.736Z,11.77
2018-09-27T23:48:46.336Z,11.75
2018-09-27T23:51:14.892Z,11.67
2018-09-27T23:53:44.311Z,11.54
2018-09-27T23:56:13.014Z,11.45
2018-09-27T23:58:42.644Z,11.40
